Kahului, HI

1:34 PM HST on August 25, 2016 (GMT -1000)
W-K WWRF | | Change Station

Elev 13 ft 20.90 °N, 156.46 °W | Updated 35 seconds ago

Scattered Clouds
Scattered Clouds
87.8 °F
Feels Like 95 °F
N
9.9
Wind Variable Wind from SSE

Today
High -- | Low -- °F
--% Chance of Precip.
Yesterday
High -- | Low -- °F
Precip. -- in
Pressure 30.06 in
Visibility 10.0 miles
Clouds Few 3500 ft
Scattered Clouds 5000 ft
Heat Index 95 °F
Dew Point 73 °F
Humidity 61%
Rainfall 0.00 in
Snow Depth Not available.
6:08 AM 6:47 PM
Last Quarter, 41% visible
METAR PHOG 252254Z 04021KT 10SM FEW035 SCT050 31/22 A3004 RMK AO2 PK WND 04028/2252 SLP177 T03110217
Pressure 30.06 in
Visibility 10.0 miles
Clouds Few 3500 ft
Scattered Clouds 5000 ft
Heat Index 95 °F
Dew Point 73 °F
Humidity 61%
Rainfall 0.00 in
Snow Depth Not available.
6:08 AM 6:47 PM
Last Quarter, 41% visible
METAR PHOG 252254Z 04021KT 10SM FEW035 SCT050 31/22 A3004 RMK AO2 PK WND 04028/2252 SLP177 T03110217

10-Day Weather Forecast

Almanac

Astronomy

Aug. 25, 2016 Rise Set
Actual Time
Civil Twilight
Nautical Twilight
Astronomical Twilight
Moon
Length of Visible Light
Length of Day
Tomorrow will be .
, % of the Moon is Illuminated

Today's Extremes

State Highs State Lows

Community

WunderPhotos

Upload Photos

1,934,959 photos uploaded!

WunderBlog® & News

Nearby

Air Quality

  Air Quality AQ Index Pollutant
Not available.

Snow Depth

Station Depth Elevation

Earthquake Activity

City Distance Mag. Time & Date
Minimum magnitude displayed is 2.5.

Coastal Water Temperatures

Place Temperature

Stations

Nearby Weather Stations

Station Location Temp. Windchill Dew Point Humidity Wind Precip. Elev Updated Type
                   

Watches & Warnings

There are currently no watches in effect.